createdAt,value
2019-02-06T05:13:43.121Z,35.40
2019-02-06T05:16:37.866Z,45.23
2019-02-06T05:19:32.813Z,42.60
2019-02-06T05:22:28.064Z,43.97
2019-02-06T05:25:22.693Z,43.20
2019-02-06T05:28:18.220Z,43.70
2019-02-06T05:31:12.840Z,44.33
2019-02-06T05:34:07.412Z,45.23
2019-02-06T05:37:02.036Z,40.37
2019-02-06T05:39:56.649Z,46.87
2019-02-06T05:42:52.823Z,51.03
2019-02-06T05:45:47.441Z,50.00
2019-02-06T05:48:43.159Z,46.40
2019-02-06T05:51:38.198Z,49.10
2019-02-06T05:54:32.522Z,48.93
2019-02-06T05:57:27.093Z,52.83
2019-02-06T06:00:27.413Z,57.97
2019-02-06T14:57:01.861Z,9.43
2019-02-06T15:00:44.372Z,10.50
2019-02-06T15:04:39.387Z,11.00
2019-02-06T15:08:16.820Z,10.13
2019-02-06T15:11:30.554Z,12.60
2019-02-06T15:15:01.500Z,10.80
2019-02-06T15:18:32.562Z,10.77
2019-02-06T15:22:14.506Z,11.40
2019-02-06T15:25:46.860Z,10.87
2019-02-06T15:29:21.837Z,11.17
2019-02-06T15:33:22.152Z,12.53
2019-02-06T15:37:07.781Z,11.60
2019-02-06T15:40:40.849Z,13.40
2019-02-06T15:44:00.998Z,13.60
2019-02-06T15:48:05.397Z,19.97
2019-02-06T15:51:46.128Z,28.03
2019-02-06T15:55:41.386Z,37.47
2019-02-06T15:59:33.198Z,39.00
2019-02-06T16:03:58.194Z,33.43
2019-02-06T16:07:51.165Z,28.20
2019-02-06T16:11:41.692Z,28.63
2019-02-06T16:15:28.633Z,26.10
2019-02-06T16:18:50.835Z,28.63
2019-02-06T16:22:33.001Z,28.60
2019-02-06T16:26:14.548Z,28.57
2019-02-06T16:30:05.493Z,27.60
2019-02-06T16:33:37.298Z,27.97
2019-02-06T16:37:31.200Z,29.30
2019-02-06T16:41:06.736Z,27.67
2019-02-06T16:44:45.708Z,28.27
2019-02-06T16:48:20.240Z,32.33
2019-02-06T16:52:02.106Z,34.30
2019-02-06T16:55:51.348Z,32.67
2019-02-06T16:59:38.395Z,34.23
2019-02-06T17:03:20.436Z,35.10
2019-02-06T17:06:43.577Z,34.63
2019-02-06T17:10:09.518Z,39.30
2019-02-06T17:14:15.819Z,39.13
2019-02-06T17:18:14.702Z,38.87
2019-02-06T17:22:10.306Z,36.77
2019-02-06T17:25:53.312Z,38.30
2019-02-06T17:29:11.217Z,37.27
2019-02-06T17:32:37.580Z,39.33
2019-02-06T17:36:52.262Z,40.37
2019-02-06T17:40:15.848Z,45.53
2019-02-06T17:43:38.309Z,42.70
2019-02-06T17:47:14.104Z,42.33
2019-02-06T17:50:43.904Z,46.13
2019-02-06T17:54:06.411Z,47.53
2019-02-06T17:57:01.081Z,47.30
2019-02-06T17:59:56.105Z,53.30
2019-02-06T18:02:51.031Z,50.60
2019-02-06T18:05:46.024Z,48.87
2019-02-06T18:08:42.169Z,48.97
2019-02-06T18:11:36.513Z,48.33
2019-02-06T18:14:31.510Z,45.50
2019-02-06T18:17:26.427Z,50.63
2019-02-06T18:20:21.455Z,48.00
2019-02-06T18:23:16.340Z,50.50
2019-02-06T18:26:11.121Z,52.63
2019-02-06T18:29:05.938Z,53.10
2019-02-06T18:32:00.835Z,54.43
2019-02-06T18:34:55.661Z,49.70
2019-02-06T18:37:50.529Z,52.40
2019-02-06T18:40:45.638Z,48.53
2019-02-06T18:43:43.025Z,50.10
2019-02-06T18:46:37.829Z,47.00
2019-02-06T18:49:32.451Z,44.03
2019-02-06T18:52:26.817Z,40.90
2019-02-06T18:55:21.382Z,40.47
2019-02-06T18:58:16.440Z,38.53
2019-02-06T19:01:10.777Z,37.50
2019-02-06T19:04:11.254Z,36.17
2019-02-06T19:07:06.271Z,38.07
2019-02-06T19:10:01.014Z,37.07
2019-02-06T19:12:57.037Z,40.03
2019-02-06T19:15:56.466Z,38.73
2019-02-06T19:18:48.424Z,38.40
2019-02-06T19:21:43.508Z,37.40
2019-02-06T19:24:38.073Z,37.20
2019-02-06T19:27:33.369Z,35.83
2019-02-06T19:30:31.191Z,38.07
2019-02-06T19:33:25.996Z,36.43
2019-02-06T19:36:20.858Z,38.40
2019-02-06T19:39:15.252Z,34.60
2019-02-06T19:42:09.978Z,34.43
2019-02-06T19:45:05.482Z,35.60
2019-02-06T19:48:00.253Z,34.87
2019-02-06T19:50:55.228Z,36.70
2019-02-06T19:53:50.091Z,34.67
2019-02-06T19:56:44.846Z,33.30
2019-02-06T19:59:39.657Z,35.00
2019-02-06T20:02:34.185Z,31.50
2019-02-06T20:05:30.027Z,30.30
2019-02-06T20:08:24.916Z,29.83
2019-02-06T20:11:19.678Z,35.03
2019-02-06T20:14:14.498Z,29.57
2019-02-06T20:17:09.166Z,30.20
2019-02-06T20:20:04.207Z,28.73
2019-02-06T20:22:58.569Z,29.53
2019-02-06T20:25:53.463Z,28.00
2019-02-06T20:28:48.048Z,28.57
2019-02-06T20:31:42.945Z,29.30
2019-02-06T20:34:41.239Z,32.80
2019-02-06T20:37:35.965Z,31.33
2019-02-06T20:40:33.142Z,30.53
2019-02-06T20:43:27.863Z,33.80
2019-02-06T20:46:22.395Z,31.17
2019-02-06T20:49:17.032Z,30.97
2019-02-06T20:52:11.642Z,29.37
2019-02-06T20:55:07.032Z,30.73
2019-02-06T20:58:02.110Z,30.77
2019-02-06T21:00:56.638Z,27.07
2019-02-06T21:03:51.777Z,27.77
2019-02-06T21:06:46.057Z,27.50
2019-02-06T21:09:40.570Z,27.57
2019-02-06T21:12:35.189Z,29.17
2019-02-06T21:15:32.678Z,28.73
2019-02-06T21:18:25.800Z,29.47
2019-02-06T21:21:20.653Z,26.93
2019-02-06T21:24:15.176Z,26.83
2019-02-06T21:27:09.695Z,27.23
2019-02-06T21:30:05.262Z,28.57
2019-02-06T21:32:59.916Z,27.00
2019-02-06T21:35:55.364Z,25.13
2019-02-06T21:38:50.140Z,27.80
2019-02-06T21:41:44.668Z,25.63
2019-02-06T21:44:39.668Z,24.23
2019-02-06T21:47:34.619Z,24.57
2019-02-06T21:50:29.143Z,27.30
2019-02-06T21:53:24.245Z,26.80
2019-02-06T21:56:19.567Z,25.80
2019-02-06T21:59:14.500Z,25.17
2019-02-06T22:02:09.436Z,25.83
2019-02-06T22:05:03.963Z,25.77
2019-02-06T22:07:58.635Z,26.60
2019-02-06T22:10:53.179Z,25.03
2019-02-06T22:13:54.905Z,26.93
2019-02-06T22:16:44.385Z,26.23
2019-02-06T22:19:38.793Z,26.13
2019-02-06T22:22:33.647Z,27.50
2019-02-06T22:25:29.245Z,31.63
2019-02-06T22:28:23.926Z,29.90
2019-02-06T22:31:18.852Z,25.77
2019-02-06T22:34:13.357Z,27.50
